Flight Track Log - Related Links

Times and Time Zones

All times are in EDT time to prevent confusion due to time zone crossing. See the AIE860 flight status page for this flight to view local times or setup timezone preferences in your user account.

Time Position Orientation Groundspeed Altitude Reporting Facility
EDT Latitude Longitude Course Direction KTS MPH feet Rate Location/Type
Fri 08:08:48 AM 58.0833 -68.4167 322° Northwest 140 161 900  Level Montreal Center
Fri 08:09:48 AM 58.0833 -68.4833 270° West 130 150 2,800 1,750 Climbing Montreal Center
Fri 08:10:48 AM 58.1167 -68.5000 345° North 160 184 4,400 1,550 Climbing Montreal Center
Fri 08:11:48 AM 58.1667 -68.5500 332° Northwest 160 184 5,900 1,500 Climbing Montreal Center
Fri 08:12:48 AM 58.2000 -68.6167 314° West 160 184 7,400 1,550 Climbing Montreal Center
Fri 08:13:48 AM 58.2333 -68.6667 322° Northwest 160 184 9,000 1,650 Climbing Montreal Center
Fri 08:14:00 AM 58.3777 -68.8498 322° Northwest  Level FlightAware Approximate
Fri 08:14:48 AM 58.2667 -68.7333 314° West 160 184 10,700  Level Montreal Center
Fri 08:15:48 AM 58.2833 -68.7500 332° Northwest 170 196 12,000 1,200 Climbing Montreal Center
Fri 08:16:48 AM 58.3333 -68.8167 325° Northwest 170 196 13,100 1,050 Climbing Montreal Center
Fri 08:17:48 AM 58.3833 -68.8667 332° Northwest 170 196 14,100 1,050 Climbing Montreal Center
Fri 08:18:48 AM 58.4167 -68.9167 322° Northwest 180 207 15,200 1,150 Climbing Montreal Center
Fri 08:19:48 AM 58.4500 -68.9833 314° West 170 196 16,400 1,100 Climbing Montreal Center
Fri 08:20:48 AM 58.4833 -69.0333 322° Northwest 180 207 17,400 1,100 Climbing Montreal Center
Fri 08:21:48 AM 58.5333 -69.1333 314° West 180 207 18,600 1,050 Climbing Montreal Center
Fri 08:22:48 AM 58.5667 -69.1833 322° Northwest 180 207 19,500 1,000 Climbing Montreal Center
Fri 08:23:48 AM 58.6000 -69.2500 314° West 180 207 20,600 1,000 Climbing Montreal Center
Fri 08:24:48 AM 58.6500 -69.3000 333° Northwest 180 207 21,500 900 Climbing Montreal Center
Fri 08:25:48 AM 58.6833 -69.3500 322° Northwest 180 207 22,400 850 Climbing Montreal Center
Fri 08:26:48 AM 58.7333 -69.4167 325° Northwest 170 196 23,200 750 Climbing Montreal Center
Fri 08:27:48 AM 58.7667 -69.4667 322° Northwest 170 196 23,900 450 Climbing Montreal Center
Fri 08:28:48 AM 58.8000 -69.5333 314° West 180 207 24,100 100 Climbing Montreal Center
Fri 08:29:48 AM 58.8500 -69.6167 319° Northwest 210 242 24,100  Level Montreal Center
Fri 08:30:48 AM 58.9000 -69.6833 325° Northwest 220 253 24,100 -50 Level Montreal Center
Fri 08:31:48 AM 58.9500 -69.7667 319° Northwest 230 265 24,000 -50 Descending Montreal Center
Fri 08:32:48 AM 59.0000 -69.8500 319° Northwest 230 265 24,000  Level Montreal Center
Fri 08:33:48 AM 59.0333 -69.9167 314° West 230 265 24,000  Level Montreal Center
Fri 08:34:48 AM 59.1000 -70.0000 327° Northwest 230 265 24,000  Level Montreal Center
Fri 08:35:48 AM 59.1500 -70.0833 319° Northwest 230 265 24,000  Level Montreal Center
Fri 08:36:48 AM 59.2000 -70.1500 326° Northwest 230 265 24,000  Level Montreal Center
Fri 08:37:48 AM 59.2500 -70.2333 320° Northwest 230 265 24,000  Level Montreal Center
Fri 08:38:48 AM 59.3000 -70.3333 314° West 230 265 24,000  Level Montreal Center
Fri 08:39:48 AM 59.3500 -70.3833 333° Northwest 230 265 24,000  Level Montreal Center
Fri 08:40:48 AM 59.4000 -70.4833 315° West 220 253 24,000  Level Montreal Center
Fri 08:41:48 AM 59.4333 -70.5667 308° West 220 253 24,000  Level Montreal Center
Fri 08:42:48 AM 59.4833 -70.6333 326° Northwest 220 253 24,000 50 Level Montreal Center
Fri 08:43:48 AM 59.5333 -70.7167 320° Northwest 220 253 24,100  Climbing Montreal Center
Fri 08:44:48 AM 59.5833 -70.7833 326° Northwest 220 253 24,000  Descending Montreal Center
Fri 08:45:48 AM 59.6333 -70.8667 320° Northwest 220 253 24,100  Climbing Montreal Center
Fri 08:46:48 AM 59.6667 -70.9667 303° West 220 253 24,000 -50 Descending Montreal Center
Fri 08:47:48 AM 59.7167 -71.0333 326° Northwest 220 253 24,000  Level Montreal Center
Fri 08:48:48 AM 59.7833 -71.1167 328° Northwest 220 253 24,000  Level Montreal Center
Fri 08:49:48 AM 59.8167 -71.1833 315° West 220 253 24,000  Level Montreal Center
Fri 08:50:48 AM 59.8667 -71.2667 320° Northwest 220 253 24,000  Level Montreal Center
Fri 08:51:48 AM 59.9167 -71.3333 326° Northwest 220 253 24,000  Level Montreal Center
Fri 08:52:48 AM 59.9500 -71.4333 304° West 220 253 24,000 50 Level Montreal Center
Fri 08:53:48 AM 60.0167 -71.5167 328° Northwest 220 253 24,100  Climbing Montreal Center
Fri 08:54:48 AM 60.0667 -71.5833 326° Northwest 220 253 24,000 -50 Descending Montreal Center
Fri 08:55:48 AM 60.1000 -71.6833 304° West 220 253 24,000  Level Montreal Center
Fri 08:56:48 AM 60.1500 -71.7333 334° Northwest 220 253 24,000  Level Montreal Center
Fri 08:57:48 AM 60.1833 -71.8333 304° West 220 253 24,000  Level Montreal Center
Fri 08:58:48 AM 60.2333 -71.9000 327° Northwest 220 253 24,000  Level Montreal Center
Fri 08:59:48 AM 60.2833 -72.0000 315° West 220 253 24,000  Level Montreal Center
Fri 09:00:48 AM 60.3333 -72.0667 327° Northwest 220 253 24,000  Level Montreal Center
Fri 09:01:48 AM 60.3667 -72.1500 309° West 210 242 24,000  Level Montreal Center
Fri 09:02:48 AM 60.4167 -72.2167 327° Northwest 210 242 24,000  Level Montreal Center
Fri 09:03:48 AM 60.4667 -72.3167 315° West 210 242 24,000  Level Montreal Center
Fri 09:04:48 AM 60.5000 -72.3833 315° West 210 242 24,000  Level Montreal Center
Fri 09:05:48 AM 60.5500 -72.4833 316° Northwest 210 242 24,000  Level Montreal Center
Fri 09:07:00 AM 60.6056 -72.5842 318° Northwest  Level FlightAware Approximate
Fri 09:14:00 AM 60.9274 -73.1824 317° Northwest  Level FlightAware Approximate
Fri 09:15:00 AM 60.9727 -73.2700 317° Northwest  Level FlightAware Approximate
Fri 09:16:00 AM 61.0179 -73.3578 317° Northwest  Level FlightAware Approximate
Fri 09:17:00 AM 61.0630 -73.4459 317° Northwest  Level FlightAware Approximate
Fri 09:18:00 AM 61.1081 -73.5342 317° Northwest  Level FlightAware Approximate
Fri 09:19:00 AM 61.1532 -73.6226 318° Northwest  Level FlightAware Approximate
Fri 09:20:00 AM 61.1990 -73.7094 318° Northwest  Level FlightAware Approximate
Fri 09:21:00 AM 61.2449 -73.7965 318° Northwest  Level FlightAware Approximate
Fri 09:22:00 AM 61.2906 -73.8838 318° Northwest  Level FlightAware Approximate
Fri 09:23:00 AM 61.3363 -73.9714 317° Northwest  Level FlightAware Approximate
Fri 09:24:00 AM 61.3820 -74.0592 317° Northwest  Level FlightAware Approximate
Fri 09:25:00 AM 61.4275 -74.1473 317° Northwest  Level FlightAware Approximate
Fri 09:26:00 AM 61.4731 -74.2356 317° Northwest  Level FlightAware Approximate
Fri 09:27:00 AM 61.5185 -74.3242 317° Northwest  Level FlightAware Approximate
Fri 09:28:00 AM 61.5639 -74.4131 317° Northwest  Level FlightAware Approximate
Fri 09:29:00 AM 61.6093 -74.5022 317° Northwest  Level FlightAware Approximate
Fri 09:30:00 AM 61.6544 -74.5919 317° Northwest  Level FlightAware Approximate
Fri 09:31:00 AM 61.6995 -74.6820 317° Northwest  Level FlightAware Approximate
Fri 09:32:00 AM 61.7439 -74.7734 314° West  Level FlightAware Approximate
Fri 09:33:00 AM 61.7868 -74.8683 314° West  Level FlightAware Approximate
Fri 09:34:00 AM 61.8297 -74.9635 314° West  Level FlightAware Approximate
Fri 09:35:00 AM 61.8724 -75.0589 314° West  Level FlightAware Approximate
Fri 09:36:00 AM 61.9191 -75.1456 321° Northwest  Level FlightAware Approximate
Fri 09:37:00 AM 61.9670 -75.2295 321° Northwest  Level FlightAware Approximate
Fri 09:38:00 AM 62.0149 -75.3136 321° Northwest  Level FlightAware Approximate
Fri 09:39:00 AM 62.0570 -75.4108 312° West  Level FlightAware Approximate
Fri 09:40:00 AM 62.0976 -75.5041 321° Northwest  Level FlightAware Approximate
Fri 09:41:00 AM 62.1426 -75.5944 306° West  Level FlightAware Approximate
Fri 09:42:00 AM 62.1667 -75.6667 306° West  Level FlightAware Approximate
Fri 09:43:00 AM 62.1792 -75.6669 306° West  Level Estimated
Fri 09:44:00 AM 62.1792 -75.6669 306° West  Level Estimated
Fri 09:45:00 AM 62.1792 -75.6669 306° West  Level Estimated
Fri 09:46:00 AM 62.1792 -75.6669 306° West  Level Estimated
Fri 09:47:00 AM 62.1792 -75.6669 306° West  Level Estimated
Fri 09:48:00 AM 62.1792 -75.6669 306° West  Level Estimated
Fri 09:49:00 AM 62.1792 -75.6669 306° West  Level Estimated
Fri 09:50:00 AM 62.1792 -75.6669 306° West  Level Estimated
Fri 09:51:00 AM 62.1792 -75.6669 306° West  Level Estimated

Login

Don't have an account? Register now (free) for customized features, flight alerts, and more!